Time;durP1;ratioP1;P1;durP2;ratioP2;P2;SDS_P1;SDS_P2;PMS_P1;PMS_P2;Temp;Humidity;BMP_temperature;BMP_pressure;BME280_temperature;BME280_humidity;BME280_pressure;Samples;Min_cycle;Max_cycle;Signal;HPM_P1;HPM_P2
2023/05/17 00:00:43;;;;;;;8.23;6.30;;;;;;;;;;8468665;28;20475;-85
2023/05/17 00:04:55;;;;;;;9.48;6.95;;;;;;;;;;8471003;28;20048;-86
2023/05/17 00:08:58;;;;;;;8.02;5.80;;;;;;;;;;8470635;28;20039;-85
2023/05/17 00:13:00;;;;;;;8.63;6.50;;;;;;;;;;8463993;28;20459;-86
2023/05/17 00:17:03;;;;;;;8.73;6.30;;;;;;;;;;8463227;28;20042;-85
2023/05/17 00:21:08;;;;;;;6.57;4.93;;;;;;;;;;8456607;28;20043;-85
2023/05/17 00:25:10;;;;;;;8.52;6.03;;;;;;;;;;8470080;28;20043;-84
2023/05/17 00:29:13;;;;;;;7.55;5.13;;;;;;;;;;8441284;28;20131;-86
2023/05/17 00:33:15;;;;;;;7.18;5.20;;;;;;;;;;8447618;28;20106;-86
2023/05/17 00:37:20;;;;;;;6.65;4.90;;;;;;;;;;8434194;28;20040;-85
2023/05/17 00:41:23;;;;;;;8.82;6.85;;;;;;;;;;8448546;28;20059;-85
2023/05/17 00:45:25;;;;;;;7.93;5.95;;;;;;;;;;8449398;28;20043;-86
2023/05/17 00:49:28;;;;;;;6.50;4.60;;;;;;;;;;8454451;28;20044;-87
2023/05/17 00:53:35;;;;;;;6.88;4.50;;;;;;;;;;8452150;28;20047;-85
2023/05/17 00:57:38;;;;;;;6.13;4.72;;;;;;;;;;8461097;28;20649;-85
2023/05/17 01:01:44;;;;;;;4.45;3.28;;;;;;;;;;8460366;28;20407;-86
2023/05/17 01:05:47;;;;;;;6.10;4.03;;;;;;;;;;8459549;28;20040;-86
2023/05/17 01:09:52;;;;;;;6.78;4.30;;;;;;;;;;8446428;28;20040;-85
2023/05/17 01:14:00;;;;;;;7.43;4.68;;;;;;;;;;8452656;28;20408;-85
2023/05/17 01:18:11;;;;;;;6.80;3.72;;;;;;;;;;8439788;28;20088;-85
2023/05/17 01:22:33;;;;;;;6.55;4.30;;;;;;;;;;8465745;28;20049;-85
2023/05/17 01:26:39;;;;;;;;;;;;;;;;;;8441915;28;20056;-86
2023/05/17 01:30:45;;;;;;;4.85;3.40;;;;;;;;;;8445318;28;19920;-83
2023/05/17 01:34:48;;;;;;;3.92;3.10;;;;;;;;;;8445461;28;20044;-85
2023/05/17 01:38:50;;;;;;;4.95;3.28;;;;;;;;;;8433207;28;20028;-85
2023/05/17 01:43:00;;;;;;;4.85;3.42;;;;;;;;;;8444331;28;20105;-85
2023/05/17 01:47:11;;;;;;;4.10;2.90;;;;;;;;;;8445102;28;20051;-85
2023/05/17 01:51:19;;;;;;;4.40;3.43;;;;;;;;;;8445274;28;20040;-85
2023/05/17 01:55:27;;;;;;;8.18;3.92;;;;;;;;;;8444721;28;20097;-84
2023/05/17 01:59:33;;;;;;;4.15;3.15;;;;;;;;;;8444605;28;20040;-85
2023/05/17 02:03:36;;;;;;;4.43;3.30;;;;;;;;;;8444431;28;20047;-85
2023/05/17 02:07:39;;;;;;;5.70;3.97;;;;;;;;;;8444294;28;20047;-85
2023/05/17 02:11:42;;;;;;;5.20;3.95;;;;;;;;;;8444195;28;20052;-85
2023/05/17 02:15:46;;;;;;;4.43;3.05;;;;;;;;;;8444892;28;20092;-85
2023/05/17 02:19:49;;;;;;;4.70;3.65;;;;;;;;;;8450320;28;20043;-85
2023/05/17 02:23:52;;;;;;;5.07;3.72;;;;;;;;;;8448877;28;20410;-84
2023/05/17 02:27:55;;;;;;;5.03;3.95;;;;;;;;;;8430589;28;20476;-84
2023/05/17 02:31:59;;;;;;;6.22;4.28;;;;;;;;;;8440128;28;20139;-84
2023/05/17 02:36:02;;;;;;;5.20;4.15;;;;;;;;;;8454528;28;20047;-84
2023/05/17 02:40:08;;;;;;;4.65;3.45;;;;;;;;;;8445164;28;20101;-84
2023/05/17 02:44:11;;;;;;;5.30;3.85;;;;;;;;;;8454106;28;20450;-84
2023/05/17 02:48:15;;;;;;;5.53;3.75;;;;;;;;;;8445527;28;20044;-84
2023/05/17 02:52:18;;;;;;;7.38;4.05;;;;;;;;;;8449265;28;20456;-85
2023/05/17 02:56:21;;;;;;;5.18;4.05;;;;;;;;;;8435351;28;20040;-85
2023/05/17 03:00:23;;;;;;;5.65;4.57;;;;;;;;;;8440025;28;20551;-85
2023/05/17 03:04:28;;;;;;;5.70;4.25;;;;;;;;;;8442988;28;20055;-85
2023/05/17 03:08:31;;;;;;;6.47;4.80;;;;;;;;;;8438651;28;20120;-85
2023/05/17 03:12:34;;;;;;;7.40;5.43;;;;;;;;;;8445989;28;20048;-85
2023/05/17 03:16:36;;;;;;;7.68;5.57;;;;;;;;;;8442630;28;20055;-85
2023/05/17 03:20:41;;;;;;;6.93;5.25;;;;;;;;;;8431900;28;20047;-85
2023/05/17 03:24:44;;;;;;;7.45;5.65;;;;;;;;;;8440378;28;20040;-84
2023/05/17 03:28:46;;;;;;;8.38;5.20;;;;;;;;;;8444459;28;20059;-84
2023/05/17 03:32:49;;;;;;;8.18;5.28;;;;;;;;;;8448740;28;20048;-85
2023/05/17 03:36:54;;;;;;;8.50;5.78;;;;;;;;;;8447071;28;20048;-86
2023/05/17 03:40:57;;;;;;;6.60;4.65;;;;;;;;;;8438424;28;20043;-86
2023/05/17 03:45:00;;;;;;;6.40;4.38;;;;;;;;;;8462688;28;20047;-86
2023/05/17 03:49:03;;;;;;;6.63;4.68;;;;;;;;;;8445989;28;20520;-85
2023/05/17 03:53:07;;;;;;;5.53;4.22;;;;;;;;;;8451757;28;20048;-86
2023/05/17 03:57:10;;;;;;;7.80;5.68;;;;;;;;;;8459163;28;20051;-88
2023/05/17 04:01:13;;;;;;;5.00;3.80;;;;;;;;;;8428290;28;20040;-86
2023/05/17 04:05:16;;;;;;;4.82;3.45;;;;;;;;;;8431693;28;20040;-86
2023/05/17 04:09:20;;;;;;;3.88;2.85;;;;;;;;;;8454483;28;20044;-85
2023/05/17 04:13:23;;;;;;;5.20;4.03;;;;;;;;;;8454461;28;20079;-87
2023/05/17 04:17:25;;;;;;;4.82;3.60;;;;;;;;;;8452036;28;20478;-85
2023/05/17 04:21:28;;;;;;;6.13;3.60;;;;;;;;;;8466061;28;20052;-84
2023/05/17 04:25:33;;;;;;;4.03;2.97;;;;;;;;;;8450322;28;20046;-85
2023/05/17 04:29:36;;;;;;;3.85;2.83;;;;;;;;;;8445612;28;20059;-85
2023/05/17 04:33:38;;;;;;;3.90;2.72;;;;;;;;;;8464186;28;20467;-85
2023/05/17 04:37:41;;;;;;;5.32;3.30;;;;;;;;;;8463608;28;20115;-86
2023/05/17 04:41:46;;;;;;;4.28;2.80;;;;;;;;;;8446538;28;20039;-87
2023/05/17 04:45:49;;;;;;;5.00;3.20;;;;;;;;;;8452043;28;20122;-87
2023/05/17 04:49:52;;;;;;;4.63;3.72;;;;;;;;;;8464675;28;20114;-84
2023/05/17 04:53:54;;;;;;;4.28;3.03;;;;;;;;;;8461714;28;20055;-86
2023/05/17 04:57:59;;;;;;;4.85;3.65;;;;;;;;;;8453511;28;20050;-86
2023/05/17 05:02:02;;;;;;;5.18;3.78;;;;;;;;;;8454338;28;20517;-85
2023/05/17 05:06:05;;;;;;;4.95;3.15;;;;;;;;;;8432699;28;20129;-86
2023/05/17 05:10:08;;;;;;;4.95;3.58;;;;;;;;;;8444543;28;20491;-85
2023/05/17 05:14:12;;;;;;;4.88;3.33;;;;;;;;;;8438670;28;20058;-85
2023/05/17 05:18:15;;;;;;;4.38;3.38;;;;;;;;;;8439848;28;20127;-85
2023/05/17 05:22:18;;;;;;;7.30;3.95;;;;;;;;;;8445697;28;20040;-84
2023/05/17 05:26:21;;;;;;;6.70;4.78;;;;;;;;;;8464553;28;20406;-85
2023/05/17 05:30:26;;;;;;;6.05;4.55;;;;;;;;;;8463342;28;20059;-86
2023/05/17 05:34:30;;;;;;;5.22;3.80;;;;;;;;;;8445398;28;20116;-84
2023/05/17 05:38:33;;;;;;;7.45;5.78;;;;;;;;;;8447709;28;20164;-86
2023/05/17 05:42:36;;;;;;;6.32;4.45;;;;;;;;;;8461484;28;20046;-88
2023/05/17 05:46:40;;;;;;;7.13;5.43;;;;;;;;;;8432358;28;20075;-86
2023/05/17 05:50:44;;;;;;;8.40;5.13;;;;;;;;;;8447182;28;20054;-87
2023/05/17 05:54:46;;;;;;;7.93;4.72;;;;;;;;;;8447517;28;20380;-87
2023/05/17 05:58:49;;;;;;;20.77;7.80;;;;;;;;;;8451937;28;20059;-87
2023/05/17 06:02:56;;;;;;;57.53;12.50;;;;;;;;;;8440727;28;20105;-86
2023/05/17 06:06:58;;;;;;;69.13;17.02;;;;;;;;;;8418196;28;20416;-86
2023/05/17 06:11:01;;;;;;;10.88;6.70;;;;;;;;;;8450207;28;20052;-85
2023/05/17 06:15:05;;;;;;;15.20;8.82;;;;;;;;;;8446292;28;20081;-87
2023/05/17 06:19:10;;;;;;;15.02;7.82;;;;;;;;;;8447780;28;20154;-86
2023/05/17 06:23:13;;;;;;;13.30;7.72;;;;;;;;;;8463978;28;20509;-87
2023/05/17 06:27:16;;;;;;;6.32;4.00;;;;;;;;;;8449102;28;20043;-87
2023/05/17 06:31:19;;;;;;;11.35;5.90;;;;;;;;;;8452136;28;20801;-87
2023/05/17 06:35:23;;;;;;;13.00;6.43;;;;;;;;;;8459256;28;20048;-87
2023/05/17 06:39:26;;;;;;;8.75;5.75;;;;;;;;;;8447745;28;20043;-86
2023/05/17 06:43:29;;;;;;;7.90;5.70;;;;;;;;;;8447804;28;20052;-87
2023/05/17 06:47:32;;;;;;;9.98;4.78;;;;;;;;;;8458333;28;20105;-88
2023/05/17 06:51:36;;;;;;;5.72;3.97;;;;;;;;;;8454727;28;20100;-88
2023/05/17 06:55:39;;;;;;;7.75;5.38;;;;;;;;;;8450481;28;20044;-87
2023/05/17 06:59:42;;;;;;;8.10;5.78;;;;;;;;;;8459119;28;20079;-88
2023/05/17 07:03:45;;;;;;;8.07;5.72;;;;;;;;;;8458908;28;21085;-88
2023/05/17 07:07:49;;;;;;;6.80;4.90;;;;;;;;;;8456663;28;20044;-88
2023/05/17 07:11:52;;;;;;;7.38;4.72;;;;;;;;;;8459565;28;20503;-88
2023/05/17 07:15:55;;;;;;;6.70;4.47;;;;;;;;;;8460864;28;20391;-87
2023/05/17 07:19:58;;;;;;;6.70;4.25;;;;;;;;;;8460842;28;20047;-88
2023/05/17 07:24:02;;;;;;;6.28;4.65;;;;;;;;;;8460793;28;20035;-87
2023/05/17 07:28:05;;;;;;;7.72;4.97;;;;;;;;;;8457906;28;20502;-88
2023/05/17 07:32:09;;;;;;;6.90;4.80;;;;;;;;;;8455223;28;20063;-87
2023/05/17 07:36:11;;;;;;;7.15;5.05;;;;;;;;;;8460551;28;20051;-87
2023/05/17 07:40:16;;;;;;;8.43;5.25;;;;;;;;;;8460250;28;20043;-87
2023/05/17 07:44:20;;;;;;;8.38;6.30;;;;;;;;;;8466384;28;20376;-87
2023/05/17 07:48:23;;;;;;;8.93;5.03;;;;;;;;;;8467202;28;20088;-88
2023/05/17 07:52:26;;;;;;;8.82;5.95;;;;;;;;;;8464988;28;20464;-85
2023/05/17 07:56:30;;;;;;;7.82;5.38;;;;;;;;;;8464901;28;20122;-87
2023/05/17 08:00:33;;;;;;;6.60;4.32;;;;;;;;;;8466887;28;20035;-87
2023/05/17 08:04:36;;;;;;;7.45;4.97;;;;;;;;;;8466647;28;20050;-86
2023/05/17 08:08:39;;;;;;;9.55;5.68;;;;;;;;;;8466591;28;20043;-87
2023/05/17 08:12:44;;;;;;;7.50;5.75;;;;;;;;;;8463197;28;20044;-87
2023/05/17 08:16:46;;;;;;;9.00;6.07;;;;;;;;;;8466222;28;20039;-87
2023/05/17 08:20:49;;;;;;;8.20;6.25;;;;;;;;;;8466497;28;20043;-87
2023/05/17 08:24:52;;;;;;;9.00;5.93;;;;;;;;;;8466386;28;20093;-86
2023/05/17 08:28:56;;;;;;;7.78;5.95;;;;;;;;;;8465811;28;20554;-86
2023/05/17 08:32:59;;;;;;;9.73;7.20;;;;;;;;;;8464926;28;20047;-87
2023/05/17 08:37:02;;;;;;;9.43;7.63;;;;;;;;;;8452074;28;20036;-86
2023/05/17 08:41:05;;;;;;;9.02;7.20;;;;;;;;;;8465804;28;20074;-87
2023/05/17 08:45:11;;;;;;;9.15;6.10;;;;;;;;;;8458334;28;20127;-86
2023/05/17 08:49:15;;;;;;;11.85;8.32;;;;;;;;;;8458300;28;20126;-85
2023/05/17 08:53:18;;;;;;;9.13;6.32;;;;;;;;;;8464870;28;20059;-86
2023/05/17 08:57:24;;;;;;;12.52;7.72;;;;;;;;;;8451709;28;20533;-87
2023/05/17 09:01:30;;;;;;;9.55;6.00;;;;;;;;;;8455833;28;20609;-87
2023/05/17 09:05:36;;;;;;;12.20;7.03;;;;;;;;;;8461800;28;20060;-83
2023/05/17 09:09:39;;;;;;;21.25;9.07;;;;;;;;;;8460065;28;20063;-84
2023/05/17 09:13:46;;;;;;;8.82;6.43;;;;;;;;;;8462032;28;20093;-87
2023/05/17 09:17:58;;;;;;;10.70;6.45;;;;;;;;;;8453842;28;20783;-86
2023/05/17 09:22:04;;;;;;;8.10;6.32;;;;;;;;;;8462779;28;20506;-87
2023/05/17 09:26:07;;;;;;;10.80;6.85;;;;;;;;;;8437842;28;20058;-87
2023/05/17 09:30:11;;;;;;;9.68;6.57;;;;;;;;;;8448393;28;20060;-87
2023/05/17 09:34:19;;;;;;;9.23;6.30;;;;;;;;;;8459566;28;20044;-87
2023/05/17 09:38:26;;;;;;;7.18;5.00;;;;;;;;;;8455076;28;20084;-88
2023/05/17 09:42:29;;;;;;;7.07;5.28;;;;;;;;;;8456076;28;20043;-87
2023/05/17 09:46:34;;;;;;;8.70;5.97;;;;;;;;;;8456563;28;20114;-85
2023/05/17 09:50:44;;;;;;;7.22;4.90;;;;;;;;;;8460727;28;20059;-85
2023/05/17 09:54:57;;;;;;;8.15;5.93;;;;;;;;;;8456269;28;20551;-87
2023/05/17 09:59:01;;;;;;;7.82;6.05;;;;;;;;;;8460101;28;20047;-86
2023/05/17 10:03:05;;;;;;;8.75;6.35;;;;;;;;;;8462155;28;20051;-87
2023/05/17 10:07:10;;;;;;;8.88;5.13;;;;;;;;;;8462898;28;20035;-88
2023/05/17 10:11:13;;;;;;;11.10;5.07;;;;;;;;;;8462690;28;20040;-86
2023/05/17 10:15:17;;;;;;;6.93;5.57;;;;;;;;;;8462671;28;20036;-86
2023/05/17 10:19:20;;;;;;;7.97;5.78;;;;;;;;;;8462626;28;20127;-86
2023/05/17 10:23:27;;;;;;;6.32;4.85;;;;;;;;;;8459316;28;20093;-86
2023/05/17 10:27:31;;;;;;;7.38;5.50;;;;;;;;;;8455974;28;20039;-86
2023/05/17 10:31:35;;;;;;;5.40;4.15;;;;;;;;;;8460640;28;20379;-87
2023/05/17 10:35:38;;;;;;;9.10;6.00;;;;;;;;;;8461268;28;20122;-88
2023/05/17 10:39:47;;;;;;;7.90;4.15;;;;;;;;;;8461186;28;20050;-87
2023/05/17 10:43:51;;;;;;;5.32;3.90;;;;;;;;;;8460049;28;20294;-88
2023/05/17 10:47:55;;;;;;;6.15;4.10;;;;;;;;;;8457465;28;20050;-85
2023/05/17 10:51:58;;;;;;;7.00;4.50;;;;;;;;;;8450099;28;20042;-87
2023/05/17 10:56:02;;;;;;;9.05;5.05;;;;;;;;;;8461361;28;20044;-89
2023/05/17 11:00:09;;;;;;;9.48;5.75;;;;;;;;;;8444528;28;20107;-88
2023/05/17 11:04:21;;;;;;;13.65;6.90;;;;;;;;;;8454743;28;20098;-87
2023/05/17 11:08:24;;;;;;;13.07;6.85;;;;;;;;;;8450283;28;20043;-85
2023/05/17 11:12:35;;;;;;;10.60;6.43;;;;;;;;;;8456765;28;20048;-87
2023/05/17 11:16:38;;;;;;;12.30;6.88;;;;;;;;;;8445921;28;20123;-87
2023/05/17 11:20:41;;;;;;;14.15;7.15;;;;;;;;;;8450647;28;20055;-85
2023/05/17 11:24:45;;;;;;;13.45;7.05;;;;;;;;;;8454863;28;20114;-88
2023/05/17 11:28:57;;;;;;;9.82;5.60;;;;;;;;;;8457830;28;20051;-86
2023/05/17 11:33:00;;;;;;;;;;;;;;;;;;8449212;28;20475;-86
2023/05/17 11:37:03;;;;;;;14.70;7.78;;;;;;;;;;8451650;28;19919;-86
2023/05/17 11:41:19;;;;;;;13.15;7.85;;;;;;;;;;8445883;28;20051;-85
2023/05/17 11:45:23;;;;;;;12.57;7.47;;;;;;;;;;8448011;28;20443;-87
2023/05/17 11:49:27;;;;;;;13.35;8.18;;;;;;;;;;8444003;28;20048;-87
2023/05/17 11:53:31;;;;;;;18.20;8.75;;;;;;;;;;8442564;28;20500;-88
2023/05/17 11:57:36;;;;;;;19.42;9.35;;;;;;;;;;8458944;28;20097;-89
2023/05/17 12:01:48;;;;;;;14.15;7.82;;;;;;;;;;8458985;28;20067;-87
2023/05/17 12:05:52;;;;;;;14.70;8.90;;;;;;;;;;8461660;28;20256;-85
2023/05/17 12:09:55;;;;;;;13.18;7.03;;;;;;;;;;8461258;28;20047;-88
2023/05/17 12:13:58;;;;;;;13.98;6.85;;;;;;;;;;8461874;28;20185;-87
2023/05/17 12:18:05;;;;;;;14.00;8.27;;;;;;;;;;8444901;28;20051;-87
2023/05/17 12:22:11;;;;;;;16.42;9.65;;;;;;;;;;8436552;28;20168;-86
2023/05/17 12:26:21;;;;;;;14.38;7.80;;;;;;;;;;8444742;28;20114;-87
2023/05/17 12:30:25;;;;;;;11.57;6.82;;;;;;;;;;8453333;28;20468;-86
2023/05/17 12:34:31;;;;;;;13.00;7.32;;;;;;;;;;8451668;28;20039;-88
2023/05/17 12:38:34;;;;;;;13.25;7.78;;;;;;;;;;8452566;28;20044;-89
2023/05/17 12:42:39;;;;;;;11.15;6.30;;;;;;;;;;8458747;28;20063;-86
2023/05/17 12:46:42;;;;;;;16.27;10.65;;;;;;;;;;8451191;28;20058;-87
2023/05/17 12:50:47;;;;;;;18.23;10.73;;;;;;;;;;8457354;28;20045;-87
2023/05/17 12:54:50;;;;;;;25.17;11.95;;;;;;;;;;8449813;28;20047;-88
2023/05/17 12:59:06;;;;;;;16.30;10.73;;;;;;;;;;8451581;28;20052;-86
2023/05/17 13:03:10;;;;;;;19.00;10.63;;;;;;;;;;8447035;28;20486;-88
2023/05/17 13:07:21;;;;;;;18.13;11.68;;;;;;;;;;8462916;28;20056;-88
2023/05/17 13:11:26;;;;;;;15.40;9.52;;;;;;;;;;8449138;28;20066;-88
2023/05/17 13:15:29;;;;;;;12.13;8.95;;;;;;;;;;8450068;28;20108;-90
2023/05/17 13:19:35;;;;;;;16.33;9.32;;;;;;;;;;8463077;28;20043;-87
2023/05/17 13:23:44;;;;;;;13.90;10.02;;;;;;;;;;8445513;28;20062;-87
2023/05/17 13:27:48;;;;;;;18.58;8.77;;;;;;;;;;8465730;28;20043;-87
2023/05/17 13:31:51;;;;;;;17.05;8.98;;;;;;;;;;8458630;28;20076;-88
2023/05/17 13:35:54;;;;;;;18.45;11.30;;;;;;;;;;8459502;28;20402;-86
2023/05/17 13:39:59;;;;;;;19.92;11.02;;;;;;;;;;8465052;28;20154;-87
2023/05/17 13:44:02;;;;;;;18.17;8.57;;;;;;;;;;8454427;28;20040;-88
2023/05/17 13:48:05;;;;;;;20.23;10.50;;;;;;;;;;8447540;28;20085;-87
2023/05/17 13:52:08;;;;;;;46.47;19.65;;;;;;;;;;8465701;28;20085;-89
2023/05/17 13:56:13;;;;;;;39.22;21.08;;;;;;;;;;8430636;28;20463;-90
2023/05/17 14:00:22;;;;;;;21.08;14.15;;;;;;;;;;8462324;28;20108;-89
2023/05/17 14:04:26;;;;;;;22.50;14.05;;;;;;;;;;8449514;28;20048;-88
2023/05/17 14:08:32;;;;;;;21.63;14.82;;;;;;;;;;8463256;28;20043;-88
2023/05/17 14:12:36;;;;;;;19.42;13.10;;;;;;;;;;8446553;28;20043;-87
2023/05/17 14:16:39;;;;;;;25.35;15.23;;;;;;;;;;8457202;28;20048;-86
2023/05/17 14:20:42;;;;;;;27.80;16.17;;;;;;;;;;8441643;28;20039;-89
2023/05/17 14:24:45;;;;;;;28.27;17.55;;;;;;;;;;8452195;28;20127;-88
2023/05/17 14:28:50;;;;;;;31.48;15.98;;;;;;;;;;8450356;28;20036;-87
2023/05/17 14:32:53;;;;;;;29.00;15.02;;;;;;;;;;8456862;28;20058;-86
2023/05/17 14:36:56;;;;;;;25.75;14.23;;;;;;;;;;8439366;28;20494;-87
2023/05/17 14:41:01;;;;;;;22.05;14.07;;;;;;;;;;8450139;28;20104;-88
2023/05/17 14:45:07;;;;;;;17.55;9.77;;;;;;;;;;8445357;28;20047;-89
2023/05/17 14:49:10;;;;;;;20.85;14.07;;;;;;;;;;8455957;28;20514;-87
2023/05/17 14:53:13;;;;;;;16.88;10.30;;;;;;;;;;8464125;28;20498;-87
2023/05/17 14:57:16;;;;;;;9.23;4.60;;;;;;;;;;8443777;28;20063;-87
2023/05/17 15:01:21;;;;;;;14.93;8.73;;;;;;;;;;8484279;28;20047;-85
2023/05/17 15:05:24;;;;;;;15.77;7.70;;;;;;;;;;8493389;28;20054;-88
2023/05/17 15:09:29;;;;;;;15.80;7.53;;;;;;;;;;8496185;28;20040;-87
2023/05/17 15:13:32;;;;;;;17.23;8.73;;;;;;;;;;8496617;28;20092;-94
2023/05/17 15:18:08;;;;;;;20.45;9.60;;;;;;;;;;8505651;28;20035;-95
2023/05/17 15:22:14;;;;;;;16.92;9.88;;;;;;;;;;8488991;28;20122;-94
2023/05/17 15:26:20;;;;;;;17.88;11.18;;;;;;;;;;8464651;28;20123;-94
2023/05/17 15:30:26;;;;;;;23.60;10.65;;;;;;;;;;8442418;28;20079;-95
2023/05/17 15:34:29;;;;;;;21.45;13.02;;;;;;;;;;8470572;28;20483;-94
2023/05/17 15:38:34;;;;;;;23.00;11.98;;;;;;;;;;8448871;28;20484;-94
2023/05/17 15:42:37;;;;;;;23.80;11.30;;;;;;;;;;8443298;28;20494;-93
2023/05/17 15:46:58;;;;;;;21.65;11.25;;;;;;;;;;8476184;28;20054;-94
2023/05/17 15:51:16;;;;;;;28.45;13.10;;;;;;;;;;8495450;28;20504;-93
2023/05/17 16:00:13;;;;;;;;;;;;;;;;;;8479970;28;20036;-95
2023/05/17 16:04:22;;;;;;;23.95;13.02;;;;;;;;;;8481925;28;20003;-96
2023/05/17 16:09:13;;;;;;;21.15;13.40;;;;;;;;;;8472585;28;20054;-95
2023/05/17 16:14:08;;;;;;;24.55;13.90;;;;;;;;;;8474594;28;20046;-95
2023/05/17 16:22:30;;;;;;;26.50;15.30;;;;;;;;;;8454167;28;20142;-93
2023/05/17 16:26:39;;;;;;;34.42;18.48;;;;;;;;;;8482818;28;20051;-94
2023/05/17 16:30:49;;;;;;;26.08;14.07;;;;;;;;;;8468228;28;20055;-95
2023/05/17 16:34:54;;;;;;;22.38;13.40;;;;;;;;;;8473501;28;20067;-94
2023/05/17 16:38:57;;;;;;;27.98;15.63;;;;;;;;;;8482969;28;20044;-95
2023/05/17 16:43:03;;;;;;;29.52;15.00;;;;;;;;;;8468200;28;20097;-95
2023/05/17 16:47:08;;;;;;;25.50;14.60;;;;;;;;;;8465697;28;20085;-95
2023/05/17 16:59:53;;;;;;;32.15;17.13;;;;;;;;;;8489415;28;20070;-94
2023/05/17 17:03:59;;;;;;;34.58;20.92;;;;;;;;;;8458972;28;20043;-95
2023/05/17 17:08:08;;;;;;;36.03;22.38;;;;;;;;;;8490798;28;20043;-94
2023/05/17 17:12:15;;;;;;;27.05;15.15;;;;;;;;;;8476327;28;20039;-94
2023/05/17 17:16:25;;;;;;;36.28;17.63;;;;;;;;;;8466765;28;20533;-96
2023/05/17 17:20:58;;;;;;;26.77;16.33;;;;;;;;;;8474210;28;20047;-95
2023/05/17 17:25:28;;;;;;;37.58;19.80;;;;;;;;;;8344487;28;20046;-95
2023/05/17 17:29:33;;;;;;;44.08;19.83;;;;;;;;;;8362924;28;20103;-94
2023/05/17 17:33:37;;;;;;;36.05;18.52;;;;;;;;;;8348516;28;20060;-94
2023/05/17 17:37:44;;;;;;;36.75;19.05;;;;;;;;;;8376821;28;20119;-95
2023/05/17 17:41:52;;;;;;;42.47;22.17;;;;;;;;;;8352112;28;20054;-96
2023/05/17 17:56:08;;;;;;;32.80;16.67;;;;;;;;;;8193978;29;20040;-95
2023/05/17 18:00:43;;;;;;;33.75;16.30;;;;;;;;;;8194246;29;20056;-94
2023/05/17 18:04:48;;;;;;;23.00;14.02;;;;;;;;;;8177535;29;20051;-95
2023/05/17 18:13:18;;;;;;;34.03;15.00;;;;;;;;;;8179914;29;20047;-95
2023/05/17 18:17:22;;;;;;;31.85;14.50;;;;;;;;;;8174964;29;20051;-95
2023/05/17 18:21:35;;;;;;;26.83;14.05;;;;;;;;;;8251119;28;20145;-95
2023/05/17 18:25:49;;;;;;;28.20;13.57;;;;;;;;;;8323592;28;20407;-95
2023/05/17 18:30:04;;;;;;;26.20;14.00;;;;;;;;;;8422256;28;20044;-96
2023/05/17 18:34:15;;;;;;;33.10;13.95;;;;;;;;;;8460786;28;20526;-95
2023/05/17 18:43:44;;;;;;;23.95;12.70;;;;;;;;;;8453378;28;20094;-96
2023/05/17 18:48:03;;;;;;;22.90;12.00;;;;;;;;;;8425466;28;20453;-94
2023/05/17 18:52:09;;;;;;;23.10;13.02;;;;;;;;;;8453959;28;20127;-95
2023/05/17 18:56:21;;;;;;;23.13;10.90;;;;;;;;;;8462856;28;20073;-95
2023/05/17 19:00:33;;;;;;;27.92;11.75;;;;;;;;;;8473627;28;20136;-95
2023/05/17 19:05:34;;;;;;;24.98;11.15;;;;;;;;;;8482181;28;20074;-93
2023/05/17 19:18:25;;;;;;;20.77;10.50;;;;;;;;;;8387424;28;20427;-95
2023/05/17 19:22:28;;;;;;;25.85;12.20;;;;;;;;;;8368183;28;20057;-94
2023/05/17 19:26:37;;;;;;;26.17;11.05;;;;;;;;;;8398606;28;20051;-96
2023/05/17 19:31:06;;;;;;;23.17;11.48;;;;;;;;;;8398805;28;20056;-95
2023/05/17 19:35:29;;;;;;;23.75;11.98;;;;;;;;;;8411393;28;20052;-95
2023/05/17 19:39:42;;;;;;;25.27;11.45;;;;;;;;;;8385327;28;20095;-94
2023/05/17 19:44:12;;;;;;;24.58;12.50;;;;;;;;;;8380562;28;20048;-95
2023/05/17 19:48:22;;;;;;;19.77;10.60;;;;;;;;;;8398231;28;20053;-96
2023/05/17 19:52:28;;;;;;;22.98;11.23;;;;;;;;;;8372616;28;20064;-95
2023/05/17 19:56:32;;;;;;;20.02;10.80;;;;;;;;;;8396762;28;20063;-94
2023/05/17 20:00:42;;;;;;;24.52;12.85;;;;;;;;;;8420975;28;20052;-94
2023/05/17 20:04:48;;;;;;;24.77;11.45;;;;;;;;;;8467977;28;20056;-93
2023/05/17 20:08:55;;;;;;;21.00;11.38;;;;;;;;;;8468467;28;20050;-95
2023/05/17 20:12:59;;;;;;;28.70;13.48;;;;;;;;;;8480483;28;20040;-94
2023/05/17 20:17:07;;;;;;;32.70;13.70;;;;;;;;;;8438321;28;20109;-95
2023/05/17 20:21:11;;;;;;;21.88;12.88;;;;;;;;;;8431762;28;20032;-94
2023/05/17 20:25:21;;;;;;;27.83;14.13;;;;;;;;;;8472545;28;20614;-95
2023/05/17 20:29:25;;;;;;;28.17;12.68;;;;;;;;;;8481678;28;20486;-94
2023/05/17 20:33:42;;;;;;;31.00;13.02;;;;;;;;;;8481461;28;20039;-94
2023/05/17 20:37:46;;;;;;;28.17;12.05;;;;;;;;;;8447832;28;20116;-94
2023/05/17 20:41:50;;;;;;;37.08;13.38;;;;;;;;;;8451838;28;20040;-94
2023/05/17 20:45:53;;;;;;;26.15;13.23;;;;;;;;;;8461966;28;20047;-94
2023/05/17 20:50:00;;;;;;;25.58;11.85;;;;;;;;;;8476209;28;20602;-95
2023/05/17 20:54:04;;;;;;;24.25;13.18;;;;;;;;;;8478079;28;20130;-93
2023/05/17 20:58:08;;;;;;;28.83;12.32;;;;;;;;;;8467825;28;20043;-93
2023/05/17 21:02:14;;;;;;;27.45;12.23;;;;;;;;;;8446581;28;20464;-93
2023/05/17 21:06:21;;;;;;;26.92;12.65;;;;;;;;;;8475720;28;20055;-94
2023/05/17 21:10:26;;;;;;;27.08;12.65;;;;;;;;;;8440090;28;20085;-94
2023/05/17 21:14:29;;;;;;;26.83;13.05;;;;;;;;;;8453766;28;20093;-94
2023/05/17 21:18:32;;;;;;;29.58;12.52;;;;;;;;;;8467772;28;20143;-94
2023/05/17 21:22:38;;;;;;;29.90;12.18;;;;;;;;;;8463345;28;20070;-94
2023/05/17 21:26:43;;;;;;;26.23;13.43;;;;;;;;;;8465734;28;20059;-96
2023/05/17 21:30:50;;;;;;;33.08;13.15;;;;;;;;;;8477460;28;20051;-94
2023/05/17 21:34:58;;;;;;;21.27;11.65;;;;;;;;;;8452286;28;20437;-94
2023/05/17 21:39:09;;;;;;;28.00;13.02;;;;;;;;;;8463605;28;20479;-94
2023/05/17 21:43:15;;;;;;;27.23;13.48;;;;;;;;;;8463728;28;20458;-94
2023/05/17 21:47:19;;;;;;;32.58;12.90;;;;;;;;;;8456722;28;20051;-94
2023/05/17 21:51:23;;;;;;;28.10;12.88;;;;;;;;;;8441564;28;20054;-95
2023/05/17 21:55:28;;;;;;;19.10;11.98;;;;;;;;;;8476404;28;20108;-94
2023/05/17 21:59:32;;;;;;;26.52;13.25;;;;;;;;;;8461724;28;20073;-94
2023/05/17 22:03:37;;;;;;;30.90;14.27;;;;;;;;;;8476739;28;20047;-95
2023/05/17 22:07:44;;;;;;;26.50;12.48;;;;;;;;;;8475972;28;20040;-95
2023/05/17 22:11:51;;;;;;;25.77;13.40;;;;;;;;;;8452660;28;20056;-93
2023/05/17 22:15:55;;;;;;;34.08;11.88;;;;;;;;;;8475987;28;20039;-94
2023/05/17 22:20:08;;;;;;;31.73;12.93;;;;;;;;;;8474876;28;20047;-93
2023/05/17 22:24:13;;;;;;;24.87;12.50;;;;;;;;;;8460791;28;20039;-93
2023/05/17 22:28:21;;;;;;;22.63;11.15;;;;;;;;;;8460884;28;20380;-95
2023/05/17 22:32:24;;;;;;;23.35;11.27;;;;;;;;;;8461510;28;20069;-95
2023/05/17 22:36:30;;;;;;;24.15;12.05;;;;;;;;;;8475982;28;20437;-94
2023/05/17 22:40:34;;;;;;;24.30;11.25;;;;;;;;;;8469013;28;20044;-94
2023/05/17 22:44:41;;;;;;;24.42;12.38;;;;;;;;;;8468106;28;20040;-95
2023/05/17 22:48:45;;;;;;;28.60;12.30;;;;;;;;;;8445301;28;20112;-94
2023/05/17 22:52:49;;;;;;;23.13;11.95;;;;;;;;;;8437368;28;20055;-93
2023/05/17 22:56:55;;;;;;;32.22;12.90;;;;;;;;;;8467074;28;20032;-95
2023/05/17 23:01:00;;;;;;;29.83;11.90;;;;;;;;;;8459655;28;20063;-94
2023/05/17 23:05:05;;;;;;;26.20;11.45;;;;;;;;;;8461174;28;20067;-94
2023/05/17 23:09:08;;;;;;;24.33;11.25;;;;;;;;;;8455038;28;20166;-94
2023/05/17 23:13:12;;;;;;;25.52;11.25;;;;;;;;;;8462004;28;20475;-95
2023/05/17 23:17:17;;;;;;;30.58;12.13;;;;;;;;;;8459040;28;20452;-94
2023/05/17 23:21:21;;;;;;;35.50;13.48;;;;;;;;;;8470065;28;20050;-94
2023/05/17 23:25:26;;;;;;;30.88;15.32;;;;;;;;;;8431807;28;20059;-94
2023/05/17 23:29:29;;;;;;;23.33;11.30;;;;;;;;;;8451948;28;20406;-94
2023/05/17 23:33:35;;;;;;;22.75;12.20;;;;;;;;;;8468066;28;20055;-94
2023/05/17 23:37:39;;;;;;;23.65;12.27;;;;;;;;;;8459290;28;20047;-94
2023/05/17 23:41:44;;;;;;;28.42;11.20;;;;;;;;;;8469333;28;20044;-95
2023/05/17 23:45:48;;;;;;;26.98;12.00;;;;;;;;;;8457419;28;20047;-95
2023/05/17 23:49:55;;;;;;;24.50;10.90;;;;;;;;;;8449658;28;20052;-95
2023/05/17 23:53:59;;;;;;;22.02;10.63;;;;;;;;;;8477211;28;20549;-96
2023/05/17 23:58:02;;;;;;;20.60;10.07;;;;;;;;;;8450855;28;20098;-95
